Time;durP1;ratioP1;P1;durP2;ratioP2;P2;SDS_P1;SDS_P2;PMS_P1;PMS_P2;Temp;Humidity;BMP_temperature;BMP_pressure;BME280_temperature;BME280_humidity;BME280_pressure;Samples;Min_cycle;Max_cycle;Signal;HPM_P1;HPM_P2
2021/12/15 00:01:13;;;;;;;27.17;13.98;;;3.70;99.90;;;;;;5074517;28;20425;-86
2021/12/15 00:03:38;;;;;;;27.73;14.00;;;4.20;99.90;;;;;;5074128;28;20028;-86
2021/12/15 00:06:12;;;;;;;28.88;13.82;;;3.80;99.90;;;;;;5070853;28;20021;-86
2021/12/15 00:08:42;;;;;;;27.23;14.05;;;4.40;99.90;;;;;;5071200;28;20393;-86
2021/12/15 00:11:08;;;;;;;28.45;13.75;;;3.80;99.90;;;;;;5075589;28;20170;-86
2021/12/15 00:13:37;;;;;;;31.20;14.35;;;4.00;99.90;;;;;;5074303;28;20494;-86
2021/12/15 00:16:04;;;;;;;30.90;14.50;;;4.00;99.90;;;;;;5074869;28;20013;-86
2021/12/15 00:18:29;;;;;;;26.38;13.45;;;4.00;99.90;;;;;;5072428;28;20485;-86
2021/12/15 00:20:55;;;;;;;26.75;12.50;;;3.90;99.90;;;;;;5071697;28;20055;-86
2021/12/15 00:23:21;;;;;;;27.83;13.70;;;4.30;99.90;;;;;;5074359;28;20040;-86
2021/12/15 00:25:47;;;;;;;23.42;12.25;;;3.90;99.90;;;;;;5074326;28;20501;-86
2021/12/15 00:28:13;;;;;;;24.08;12.52;;;3.90;99.90;;;;;;5074435;28;20072;-86
2021/12/15 00:30:39;;;;;;;25.95;13.35;;;3.90;99.90;;;;;;5073756;28;20067;-86
2021/12/15 00:33:06;;;;;;;26.67;12.63;;;3.90;99.90;;;;;;5070251;28;20383;-86
2021/12/15 00:35:32;;;;;;;25.05;13.10;;;3.60;99.90;;;;;;5076245;28;20049;-86
2021/12/15 00:37:58;;;;;;;24.52;12.23;;;4.30;99.90;;;;;;5073445;28;20059;-86
2021/12/15 00:40:25;;;;;;;23.90;12.70;;;3.60;99.90;;;;;;5073997;28;20076;-86
2021/12/15 00:42:51;;;;;;;22.08;12.27;;;3.80;99.90;;;;;;5074013;28;20024;-86
2021/12/15 00:45:17;;;;;;;23.98;12.25;;;3.80;99.90;;;;;;5067874;28;20028;-85
2021/12/15 00:47:44;;;;;;;24.10;12.70;;;3.60;99.90;;;;;;5069623;28;20054;-86
2021/12/15 00:50:12;;;;;;;24.73;12.82;;;3.40;99.90;;;;;;5072944;28;20028;-86
2021/12/15 00:52:40;;;;;;;25.42;12.63;;;3.70;99.90;;;;;;5074147;28;20017;-86
2021/12/15 00:55:08;;;;;;;21.17;11.57;;;3.20;99.90;;;;;;5074127;28;20399;-86
2021/12/15 00:57:34;;;;;;;24.38;12.02;;;3.10;99.90;;;;;;5072774;28;20039;-86
2021/12/15 01:00:01;;;;;;;25.58;12.82;;;3.30;99.90;;;;;;5070401;28;20040;-85
2021/12/15 01:02:27;;;;;;;23.02;12.40;;;3.40;99.90;;;;;;5077436;28;20020;-86
2021/12/15 01:04:53;;;;;;;25.63;13.35;;;3.50;99.90;;;;;;5077638;28;20025;-86
2021/12/15 01:07:19;;;;;;;24.77;13.38;;;4.00;99.90;;;;;;5077411;28;20029;-86
2021/12/15 01:09:56;;;;;;;25.85;13.25;;;3.60;99.90;;;;;;5077687;28;20020;-86
2021/12/15 01:20:43;;;;;;;27.77;12.90;;;4.20;99.90;;;;;;5078895;28;20035;-86
2021/12/15 01:23:13;;;;;;;24.98;13.15;;;4.00;99.90;;;;;;5077589;28;20039;-86
2021/12/15 01:25:55;;;;;;;26.35;13.45;;;3.40;99.90;;;;;;5077350;28;20063;-86
2021/12/15 01:28:22;;;;;;;27.75;13.40;;;3.50;99.90;;;;;;5077316;28;20044;-86
2021/12/15 01:30:50;;;;;;;27.52;13.18;;;3.60;99.90;;;;;;5077593;28;20020;-86
2021/12/15 01:33:16;;;;;;;26.90;13.35;;;3.60;99.90;;;;;;5073215;28;22349;-86
2021/12/15 01:35:45;;;;;;;28.20;13.13;;;3.60;99.90;;;;;;5078995;28;20103;-86
2021/12/15 01:38:13;;;;;;;26.55;13.45;;;3.70;99.90;;;;;;5077440;28;20075;-86
2021/12/15 01:40:43;;;;;;;28.98;13.48;;;4.40;99.90;;;;;;5077072;28;20464;-86
2021/12/15 01:43:24;;;;;;;28.90;13.57;;;3.80;99.90;;;;;;5076822;28;20029;-86
2021/12/15 01:48:41;;;;;;;27.05;14.05;;;3.70;99.90;;;;;;5076193;28;20023;-86
2021/12/15 01:51:09;;;;;;;31.20;13.25;;;3.70;99.90;;;;;;5071099;28;20031;-86
2021/12/15 01:53:35;;;;;;;27.17;13.35;;;3.70;99.90;;;;;;5078898;28;20153;-86
2021/12/15 01:56:03;;;;;;;29.40;14.43;;;3.70;99.90;;;;;;5075172;28;20116;-86
2021/12/15 01:58:29;;;;;;;27.10;13.63;;;4.10;99.90;;;;;;5076685;28;20436;-86
2021/12/15 02:00:59;;;;;;;26.15;13.35;;;4.30;99.90;;;;;;5077336;28;20047;-86
2021/12/15 02:03:24;;;;;;;25.85;13.02;;;3.60;99.90;;;;;;5074968;28;20066;-85
2021/12/15 02:05:50;;;;;;;26.17;12.82;;;3.80;99.90;;;;;;5092402;28;20472;-85
2021/12/15 02:08:17;;;;;;;24.50;12.38;;;3.90;99.90;;;;;;5077338;28;20054;-86
2021/12/15 02:10:45;;;;;;;28.73;13.60;;;3.70;99.90;;;;;;5075719;28;20039;-86
2021/12/15 02:13:15;;;;;;;23.85;12.15;;;3.70;99.90;;;;;;5076393;28;20451;-85
2021/12/15 02:15:45;;;;;;;24.35;12.45;;;3.70;99.90;;;;;;5075339;28;20115;-86
2021/12/15 02:18:14;;;;;;;28.00;13.07;;;3.80;99.90;;;;;;5057119;28;20025;-86
2021/12/15 02:20:44;;;;;;;25.92;13.45;;;3.80;99.90;;;;;;5085388;28;20043;-86
2021/12/15 02:23:14;;;;;;;24.75;12.63;;;3.80;99.90;;;;;;5075363;28;20070;-86
2021/12/15 02:25:40;;;;;;;25.10;12.88;;;4.10;99.90;;;;;;5075842;28;20013;-84
2021/12/15 02:28:08;;;;;;;24.52;12.40;;;3.80;99.90;;;;;;5076420;28;20105;-85
2021/12/15 02:38:30;;;;;;;20.48;10.68;;;3.50;99.90;;;;;;5077588;28;20094;-86
2021/12/15 02:41:05;;;;;;;22.42;11.13;;;3.70;99.90;;;;;;5075487;28;20513;-86
2021/12/15 02:43:30;;;;;;;22.98;11.45;;;3.80;99.90;;;;;;5076137;28;20074;-86
2021/12/15 02:45:56;;;;;;;26.90;12.00;;;3.80;99.90;;;;;;5076026;28;20036;-86
2021/12/15 02:48:22;;;;;;;25.52;12.10;;;3.90;99.90;;;;;;5073235;28;20025;-86
2021/12/15 02:50:48;;;;;;;26.90;12.23;;;3.80;99.90;;;;;;5075467;28;20111;-86
2021/12/15 02:53:13;;;;;;;25.02;12.00;;;3.90;99.90;;;;;;5084748;28;20476;-86
2021/12/15 02:55:39;;;;;;;23.48;11.02;;;4.00;99.90;;;;;;5079501;28;20031;-86
2021/12/15 02:58:05;;;;;;;22.52;10.88;;;4.50;99.90;;;;;;5075247;28;20486;-86
2021/12/15 03:00:46;;;;;;;24.05;11.43;;;3.60;99.90;;;;;;5073953;28;20587;-86
2021/12/15 03:05:50;;;;;;;22.85;11.77;;;3.70;99.90;;;;;;5084706;28;20035;-86
2021/12/15 03:08:34;;;;;;;22.60;11.05;;;3.60;99.90;;;;;;5076136;28;20096;-86
2021/12/15 03:16:28;;;;;;;22.83;11.77;;;3.70;99.90;;;;;;5075554;28;20420;-86
2021/12/15 03:18:57;;;;;;;23.35;11.65;;;3.80;99.90;;;;;;5072982;28;20020;-86
2021/12/15 03:21:26;;;;;;;21.80;11.48;;;3.80;99.90;;;;;;5068945;28;20421;-86
2021/12/15 03:24:12;;;;;;;20.10;10.98;;;3.80;99.90;;;;;;5073870;28;20377;-86
2021/12/15 03:26:47;;;;;;;25.42;12.55;;;3.90;99.90;;;;;;5084222;28;20061;-86
2021/12/15 03:35:03;;;;;;;22.17;11.18;;;3.80;99.90;;;;;;5076092;28;20104;-86
2021/12/15 03:37:33;;;;;;;22.33;11.07;;;3.90;99.90;;;;;;5074955;28;20054;-86
2021/12/15 03:40:06;;;;;;;25.75;12.13;;;3.90;99.90;;;;;;5074756;28;20470;-86
2021/12/15 03:42:42;;;;;;;24.27;12.07;;;3.80;99.90;;;;;;5073862;28;20025;-86
2021/12/15 03:45:12;;;;;;;24.70;11.48;;;3.80;99.90;;;;;;5070730;28;20036;-85
2021/12/15 03:47:41;;;;;;;21.50;11.00;;;3.80;99.90;;;;;;5084019;28;20062;-86
2021/12/15 03:50:10;;;;;;;20.58;10.10;;;3.60;99.90;;;;;;5074052;28;20370;-86
2021/12/15 03:52:36;;;;;;;22.48;11.27;;;3.60;99.90;;;;;;5073102;28;20031;-87
2021/12/15 03:55:03;;;;;;;21.30;10.55;;;3.50;99.90;;;;;;5074370;28;20099;-86
2021/12/15 03:57:29;;;;;;;22.45;10.70;;;3.50;99.90;;;;;;5069138;28;20051;-86
2021/12/15 03:59:57;;;;;;;22.40;11.10;;;3.50;99.90;;;;;;5073245;28;20056;-86
2021/12/15 04:02:24;;;;;;;24.88;10.65;;;3.50;99.90;;;;;;5066995;28;20031;-86
2021/12/15 04:04:51;;;;;;;24.48;11.05;;;3.50;99.90;;;;;;5075722;28;20032;-86
2021/12/15 04:07:19;;;;;;;23.35;11.07;;;3.60;99.90;;;;;;5074523;28;20036;-87
2021/12/15 04:09:46;;;;;;;20.98;10.27;;;3.60;99.90;;;;;;5074881;28;20046;-86
2021/12/15 04:12:14;;;;;;;23.65;12.02;;;3.60;99.90;;;;;;5070310;28;20025;-86
2021/12/15 04:14:44;;;;;;;22.77;11.38;;;3.60;99.90;;;;;;5076661;28;20032;-86
2021/12/15 04:17:30;;;;;;;22.95;10.95;;;3.70;99.90;;;;;;5073437;28;20037;-86
2021/12/15 04:20:00;;;;;;;23.60;11.13;;;3.70;99.90;;;;;;5074611;28;20412;-87
2021/12/15 04:22:26;;;;;;;23.90;12.05;;;3.80;99.90;;;;;;5074458;28;20063;-86
2021/12/15 04:24:52;;;;;;;22.65;10.93;;;3.80;99.90;;;;;;5075451;28;20035;-86
2021/12/15 04:27:20;;;;;;;22.05;10.68;;;3.80;99.90;;;;;;5070914;28;20369;-86
2021/12/15 04:29:47;;;;;;;23.95;11.20;;;3.80;99.90;;;;;;5074312;28;20060;-86
2021/12/15 04:32:19;;;;;;;25.85;11.73;;;3.90;99.90;;;;;;5073721;28;20032;-86
2021/12/15 04:34:45;;;;;;;24.65;11.82;;;4.00;99.90;;;;;;5074376;28;20005;-86
2021/12/15 04:37:11;;;;;;;25.80;11.25;;;3.70;99.90;;;;;;5074837;28;20403;-86
2021/12/15 04:39:36;;;;;;;20.80;10.80;;;3.80;99.90;;;;;;5071503;28;20099;-86
2021/12/15 04:42:05;;;;;;;23.17;10.52;;;3.80;99.90;;;;;;5075559;28;20033;-86
2021/12/15 04:44:33;;;;;;;22.15;10.80;;;3.80;99.90;;;;;;5079999;28;20392;-86
2021/12/15 04:47:09;;;;;;;18.25;9.13;;;3.70;99.90;;;;;;5077872;28;20020;-86
2021/12/15 04:49:40;;;;;;;20.88;10.80;;;3.70;99.90;;;;;;5078265;28;20108;-86
2021/12/15 04:52:06;;;;;;;26.77;11.30;;;4.40;99.90;;;;;;5077954;28;20550;-86
2021/12/15 04:54:32;;;;;;;20.35;10.30;;;3.70;99.90;;;;;;5076387;28;20154;-86
2021/12/15 04:56:59;;;;;;;23.13;10.63;;;3.70;99.90;;;;;;5075533;28;20056;-86
2021/12/15 04:59:25;;;;;;;20.52;10.77;;;3.70;99.90;;;;;;5079801;28;20025;-86
2021/12/15 05:01:51;;;;;;;25.27;11.40;;;3.60;99.90;;;;;;5077904;28;20111;-85
2021/12/15 05:04:17;;;;;;;18.88;10.25;;;4.20;99.90;;;;;;5078093;28;20098;-86
2021/12/15 05:06:44;;;;;;;22.27;10.60;;;3.60;99.90;;;;;;5077469;28;20030;-85
2021/12/15 05:09:11;;;;;;;20.55;10.40;;;3.70;99.90;;;;;;5054101;28;20392;-85
2021/12/15 05:11:37;;;;;;;21.00;10.32;;;3.60;99.90;;;;;;5079317;28;20021;-86
2021/12/15 05:14:04;;;;;;;21.30;10.07;;;3.60;99.90;;;;;;5077084;28;20020;-86
2021/12/15 05:16:29;;;;;;;22.35;10.77;;;3.60;99.90;;;;;;5067223;28;20425;-86
2021/12/15 05:18:55;;;;;;;20.30;10.65;;;3.60;99.90;;;;;;5078413;28;20023;-91
2021/12/15 05:21:23;;;;;;;19.30;10.25;;;3.60;99.90;;;;;;5052937;28;20493;-88
2021/12/15 05:23:54;;;;;;;21.85;10.75;;;3.70;99.90;;;;;;5054740;28;20463;-91
2021/12/15 05:26:20;;;;;;;24.30;10.15;;;3.70;99.90;;;;;;5062806;28;20123;-85
2021/12/15 05:28:46;;;;;;;20.95;10.43;;;3.60;99.90;;;;;;5061617;28;20037;-86
2021/12/15 05:31:12;;;;;;;24.02;10.55;;;3.70;99.90;;;;;;5059057;28;20078;-86
2021/12/15 05:33:38;;;;;;;26.40;12.15;;;3.70;99.90;;;;;;5039070;28;20025;-85
2021/12/15 05:36:04;;;;;;;21.67;10.38;;;3.70;99.90;;;;;;5070347;28;20043;-87
2021/12/15 05:38:30;;;;;;;18.80;9.57;;;3.60;99.90;;;;;;5058608;28;20514;-86
2021/12/15 05:40:57;;;;;;;19.20;9.82;;;3.60;99.90;;;;;;5058641;28;20140;-86
2021/12/15 05:43:23;;;;;;;19.15;10.05;;;3.90;99.90;;;;;;5044589;28;20104;-87
2021/12/15 05:45:50;;;;;;;22.33;10.25;;;3.90;99.90;;;;;;5069375;28;20025;-86
2021/12/15 05:48:17;;;;;;;23.58;10.15;;;3.80;99.90;;;;;;5053785;28;20577;-85
2021/12/15 05:50:44;;;;;;;22.95;9.48;;;3.40;99.90;;;;;;5056560;28;20063;-86
2021/12/15 05:53:10;;;;;;;20.00;10.80;;;3.40;99.90;;;;;;5068029;28;20043;-85
2021/12/15 05:55:37;;;;;;;19.85;10.95;;;3.40;99.90;;;;;;5067490;28;20493;-86
2021/12/15 05:58:04;;;;;;;21.50;10.25;;;3.50;99.90;;;;;;5049241;28;20111;-87
2021/12/15 06:00:34;;;;;;;17.23;8.38;;;3.50;99.90;;;;;;5068985;28;20024;-87
2021/12/15 06:03:00;;;;;;;14.13;8.32;;;4.10;99.90;;;;;;5069965;28;20031;-86
2021/12/15 06:05:26;;;;;;;21.77;9.13;;;3.40;99.90;;;;;;5078105;28;20101;-86
2021/12/15 06:07:52;;;;;;;18.23;9.32;;;3.40;99.90;;;;;;5076094;28;20020;-86
2021/12/15 06:10:22;;;;;;;18.42;9.73;;;4.10;99.90;;;;;;5076594;28;20034;-87
2021/12/15 06:12:50;;;;;;;21.42;10.65;;;3.40;99.90;;;;;;5076314;28;20156;-87
2021/12/15 06:15:23;;;;;;;22.48;10.63;;;3.50;99.90;;;;;;5069165;28;20021;-87
2021/12/15 06:17:51;;;;;;;21.10;10.32;;;3.50;99.90;;;;;;5075089;28;20086;-86
2021/12/15 06:20:17;;;;;;;22.52;11.10;;;3.60;99.90;;;;;;5077555;28;20236;-86
2021/12/15 06:22:45;;;;;;;21.55;11.13;;;3.60;99.90;;;;;;5080198;28;20122;-86
2021/12/15 06:25:10;;;;;;;22.95;11.30;;;3.50;99.90;;;;;;5066030;28;20099;-86
2021/12/15 06:27:37;;;;;;;22.08;11.55;;;3.50;99.90;;;;;;5073655;28;20507;-87
2021/12/15 06:30:04;;;;;;;19.40;10.60;;;3.50;99.90;;;;;;5072075;28;20455;-86
2021/12/15 06:32:30;;;;;;;22.23;11.02;;;3.50;99.90;;;;;;5078451;28;20021;-87
2021/12/15 06:34:55;;;;;;;23.58;10.25;;;3.50;99.90;;;;;;5076182;28;20028;-87
2021/12/15 06:37:21;;;;;;;22.17;9.50;;;3.50;99.90;;;;;;5076047;28;20536;-86
2021/12/15 06:39:47;;;;;;;18.45;9.63;;;3.50;99.90;;;;;;5075900;28;20081;-86
2021/12/15 06:42:13;;;;;;;19.83;9.48;;;3.40;99.90;;;;;;5068966;28;20029;-86
2021/12/15 06:44:40;;;;;;;20.45;9.75;;;3.30;99.90;;;;;;5077972;28;20031;-86
2021/12/15 07:00:33;;;;;;;22.42;10.93;;;3.30;99.90;;;;;;5072587;28;20032;-86
2021/12/15 07:03:00;;;;;;;20.40;10.07;;;3.20;99.90;;;;;;5072691;28;20033;-87
2021/12/15 07:05:27;;;;;;;20.42;10.85;;;3.40;99.90;;;;;;5091735;28;20039;-86
2021/12/15 07:07:53;;;;;;;24.80;11.73;;;3.30;99.90;;;;;;5075841;28;20480;-86
2021/12/15 07:10:23;;;;;;;19.42;9.95;;;3.70;99.90;;;;;;5074954;28;20039;-87
2021/12/15 07:12:49;;;;;;;18.92;9.65;;;3.40;99.90;;;;;;5075061;28;20262;-86
2021/12/15 07:15:16;;;;;;;17.70;10.13;;;3.30;99.90;;;;;;5071045;28;20044;-86
2021/12/15 07:17:45;;;;;;;18.55;10.68;;;3.20;99.90;;;;;;5076718;28;20032;-87
2021/12/15 07:20:36;;;;;;;16.15;8.63;;;3.20;99.90;;;;;;5074511;28;20042;-87
2021/12/15 07:23:04;;;;;;;14.00;7.53;;;3.30;99.90;;;;;;5063909;28;20481;-86
2021/12/15 07:25:31;;;;;;;15.52;7.80;;;3.90;99.90;;;;;;5075263;28;20023;-87
2021/12/15 07:27:56;;;;;;;13.52;8.20;;;3.30;99.90;;;;;;5073996;28;20471;-87
2021/12/15 07:30:23;;;;;;;22.33;7.85;;;3.20;99.90;;;;;;5066100;28;20025;-87
2021/12/15 07:32:49;;;;;;;17.27;9.35;;;3.80;99.90;;;;;;5070248;28;20060;-86
2021/12/15 07:35:17;;;;;;;17.27;9.70;;;3.30;99.90;;;;;;5067785;28;20059;-87
2021/12/15 07:37:43;;;;;;;16.15;9.65;;;3.20;99.90;;;;;;5046930;28;20036;-86
2021/12/15 07:40:13;;;;;;;14.60;8.00;;;3.20;99.90;;;;;;5065694;28;20082;-86
2021/12/15 07:42:54;;;;;;;12.93;8.13;;;3.20;99.90;;;;;;5065839;28;20024;-88
2021/12/15 07:45:24;;;;;;;15.43;8.18;;;3.10;99.90;;;;;;5035434;28;20026;-86
2021/12/15 07:47:53;;;;;;;14.25;8.30;;;3.20;99.90;;;;;;5070787;28;20416;-86
2021/12/15 07:50:20;;;;;;;24.63;13.15;;;3.70;99.90;;;;;;5067169;28;20055;-87
2021/12/15 07:52:48;;;;;;;17.50;10.30;;;3.40;99.90;;;;;;5047710;28;20428;-86
2021/12/15 07:55:14;;;;;;;11.93;7.63;;;3.40;99.90;;;;;;5066074;28;20024;-86
2021/12/15 07:57:40;;;;;;;13.32;8.23;;;3.30;99.90;;;;;;5064337;28;20040;-86
2021/12/15 08:00:08;;;;;;;13.40;8.02;;;3.40;99.90;;;;;;5067184;28;20404;-86
2021/12/15 08:02:34;;;;;;;14.35;8.23;;;3.50;99.90;;;;;;5072337;28;20031;-86
2021/12/15 08:05:00;;;;;;;11.93;7.43;;;3.40;99.90;;;;;;5065678;28;20029;-86
2021/12/15 08:07:25;;;;;;;13.88;8.52;;;3.40;99.90;;;;;;5065765;28;20020;-86
2021/12/15 08:09:51;;;;;;;14.50;8.10;;;3.40;99.90;;;;;;5066122;28;20464;-86
2021/12/15 08:12:17;;;;;;;13.68;7.82;;;3.40;99.90;;;;;;5066866;28;20048;-86
2021/12/15 08:14:42;;;;;;;13.63;8.20;;;3.30;99.90;;;;;;5075470;28;20028;-86
2021/12/15 08:17:08;;;;;;;14.32;8.00;;;3.40;99.90;;;;;;5070346;28;20392;-86
2021/12/15 08:19:34;;;;;;;11.23;7.22;;;3.50;99.90;;;;;;5069842;28;20031;-86
2021/12/15 08:22:00;;;;;;;15.10;8.20;;;3.40;99.90;;;;;;5070308;28;20485;-86
2021/12/15 08:24:25;;;;;;;11.20;7.03;;;3.30;99.90;;;;;;5050626;28;20031;-87
2021/12/15 08:26:51;;;;;;;12.07;6.75;;;3.10;99.90;;;;;;5073547;28;20029;-86
2021/12/15 08:29:17;;;;;;;12.98;7.38;;;3.60;99.90;;;;;;5071451;28;20080;-86
2021/12/15 08:31:43;;;;;;;12.55;7.28;;;3.10;99.90;;;;;;5069618;28;20020;-87
2021/12/15 08:34:09;;;;;;;12.25;7.60;;;3.80;99.90;;;;;;5069171;28;20258;-86
2021/12/15 08:36:36;;;;;;;13.38;7.85;;;3.30;99.90;;;;;;5070362;28;20488;-86
2021/12/15 08:39:03;;;;;;;16.10;7.25;;;3.30;99.90;;;;;;5053314;28;20459;-86
2021/12/15 08:41:29;;;;;;;12.30;7.20;;;3.30;99.90;;;;;;5074343;28;20037;-86
2021/12/15 08:43:57;;;;;;;10.68;6.43;;;3.30;99.90;;;;;;5068899;28;20029;-86
2021/12/15 08:46:29;;;;;;;12.25;7.82;;;3.40;99.90;;;;;;5069188;28;20040;-86
2021/12/15 08:48:55;;;;;;;11.93;7.43;;;3.40;99.90;;;;;;5051143;28;20404;-86
2021/12/15 08:51:27;;;;;;;13.77;7.25;;;4.00;99.90;;;;;;5067558;28;20068;-86
2021/12/15 08:54:00;;;;;;;13.95;8.70;;;3.60;99.90;;;;;;5072366;28;20028;-86
2021/12/15 08:56:26;;;;;;;15.32;9.15;;;3.70;99.90;;;;;;5072003;28;20020;-86
2021/12/15 08:58:53;;;;;;;12.95;8.05;;;3.80;99.90;;;;;;5068745;28;20024;-87
2021/12/15 09:01:20;;;;;;;15.23;8.60;;;3.70;99.90;;;;;;5068897;28;20530;-86
2021/12/15 09:03:46;;;;;;;15.30;8.05;;;3.60;99.90;;;;;;5067858;28;20068;-86
2021/12/15 09:06:14;;;;;;;13.18;8.43;;;3.60;99.90;;;;;;5068963;28;20021;-85
2021/12/15 09:08:42;;;;;;;15.98;8.68;;;3.50;99.90;;;;;;5067018;28;20405;-86
2021/12/15 09:11:12;;;;;;;21.88;9.13;;;3.60;99.90;;;;;;5067038;28;20032;-86
2021/12/15 09:13:38;;;;;;;17.75;9.88;;;3.50;99.90;;;;;;5068417;28;20047;-86
2021/12/15 09:16:08;;;;;;;25.33;9.63;;;3.40;99.90;;;;;;5068491;28;20078;-86
2021/12/15 09:18:36;;;;;;;17.40;9.45;;;3.30;99.90;;;;;;5068968;28;20025;-86
2021/12/15 09:21:02;;;;;;;15.93;9.35;;;3.40;99.90;;;;;;5069622;28;20493;-86
2021/12/15 09:23:28;;;;;;;16.52;9.43;;;3.30;99.90;;;;;;5073378;28;20111;-86
2021/12/15 09:25:54;;;;;;;15.98;9.68;;;3.30;99.90;;;;;;5067958;28;20115;-86
2021/12/15 09:28:20;;;;;;;14.95;8.40;;;3.40;99.90;;;;;;5068486;28;20032;-86
2021/12/15 09:30:49;;;;;;;14.05;8.55;;;3.70;99.90;;;;;;5068204;28;20035;-86
2021/12/15 09:33:23;;;;;;;14.70;7.93;;;3.10;99.90;;;;;;5068424;28;20502;-86
2021/12/15 09:35:49;;;;;;;17.23;8.15;;;3.10;99.90;;;;;;5073345;28;20039;-86
2021/12/15 09:38:17;;;;;;;15.93;7.70;;;3.10;99.90;;;;;;5069881;28;20111;-86
2021/12/15 09:40:43;;;;;;;13.15;7.75;;;3.30;99.90;;;;;;5068708;28;20504;-86
2021/12/15 09:43:11;;;;;;;13.02;7.65;;;3.20;99.90;;;;;;5067075;28;20032;-86
2021/12/15 09:45:47;;;;;;;11.35;7.00;;;3.30;99.90;;;;;;5068089;28;20405;-87
2021/12/15 10:02:26;;;;;;;15.68;7.72;;;3.40;99.90;;;;;;5068172;28;20078;-86
2021/12/15 10:05:14;;;;;;;13.02;8.52;;;3.60;99.90;;;;;;5050818;28;20024;-86
2021/12/15 10:10:43;;;;;;;14.00;8.52;;;3.60;99.90;;;;;;5067489;28;20031;-86
2021/12/15 10:18:48;;;;;;;15.82;8.60;;;3.60;99.90;;;;;;5067855;28;20074;-86
2021/12/15 10:21:29;;;;;;;14.50;7.85;;;3.60;99.90;;;;;;5034663;28;20108;-86
2021/12/15 10:23:56;;;;;;;15.57;8.25;;;3.80;99.90;;;;;;5069687;28;20021;-86
2021/12/15 10:26:23;;;;;;;16.17;8.70;;;3.60;99.90;;;;;;5071244;28;20032;-87
2021/12/15 10:28:52;;;;;;;14.68;8.27;;;3.60;99.90;;;;;;5067160;28;20080;-86
2021/12/15 10:31:23;;;;;;;12.75;7.93;;;3.50;99.90;;;;;;5067400;28;20059;-86
2021/12/15 10:33:55;;;;;;;15.93;9.20;;;3.50;99.90;;;;;;5067314;28;20008;-86
2021/12/15 10:36:30;;;;;;;14.18;8.73;;;3.40;99.90;;;;;;5067203;28;20457;-86
2021/12/15 10:38:58;;;;;;;14.05;8.00;;;3.50;99.90;;;;;;5069300;28;20024;-86
2021/12/15 10:41:39;;;;;;;14.52;8.88;;;3.80;99.90;;;;;;5068840;28;20036;-86
2021/12/15 10:44:12;;;;;;;11.90;8.18;;;3.30;99.90;;;;;;5067643;28;20024;-86
2021/12/15 10:46:42;;;;;;;14.48;9.15;;;3.40;99.90;;;;;;5048879;28;20481;-86
2021/12/15 10:49:16;;;;;;;14.40;8.75;;;3.60;99.90;;;;;;5067365;28;20025;-86
2021/12/15 10:51:44;;;;;;;12.23;8.02;;;3.60;99.90;;;;;;5066850;28;20028;-86
2021/12/15 10:54:11;;;;;;;13.70;7.88;;;3.50;99.90;;;;;;5066639;28;20030;-86
2021/12/15 10:56:41;;;;;;;12.25;7.32;;;3.60;99.90;;;;;;5072730;28;20063;-86
2021/12/15 10:59:10;;;;;;;11.77;7.53;;;3.70;99.90;;;;;;5066668;28;20021;-86
2021/12/15 11:01:40;;;;;;;13.48;7.72;;;3.90;99.90;;;;;;5065629;28;20031;-86
2021/12/15 11:04:21;;;;;;;16.55;8.55;;;3.90;99.90;;;;;;5066575;28;20029;-86
2021/12/15 11:07:03;;;;;;;22.63;11.43;;;4.30;99.90;;;;;;5066235;28;20447;-87
2021/12/15 11:09:33;;;;;;;13.38;8.63;;;3.90;99.90;;;;;;5066499;28;20039;-86
2021/12/15 11:12:05;;;;;;;11.93;7.75;;;3.90;99.90;;;;;;5068499;28;20606;-86
2021/12/15 11:14:34;;;;;;;12.82;7.50;;;3.80;99.90;;;;;;5071492;28;20382;-86
2021/12/15 11:17:13;;;;;;;15.23;9.90;;;4.50;99.90;;;;;;5066349;28;20103;-86
2021/12/15 11:19:48;;;;;;;14.82;8.23;;;3.80;99.90;;;;;;5066135;28;20435;-86
2021/12/15 11:22:37;;;;;;;14.77;8.32;;;3.70;99.90;;;;;;5065878;28;20094;-87
2021/12/15 11:25:08;;;;;;;12.32;8.30;;;3.70;99.90;;;;;;5065736;28;20032;-85
2021/12/15 11:27:34;;;;;;;14.57;9.50;;;3.70;99.90;;;;;;5066191;28;20029;-86
2021/12/15 11:30:00;;;;;;;13.40;8.90;;;4.20;99.90;;;;;;5067542;28;20493;-86
2021/12/15 11:32:46;;;;;;;13.38;9.10;;;3.90;99.90;;;;;;5071560;28;20029;-86
2021/12/15 11:35:23;;;;;;;14.55;9.35;;;3.90;99.90;;;;;;5065685;28;20028;-86
2021/12/15 11:37:57;;;;;;;14.30;8.85;;;4.00;99.90;;;;;;5065699;28;20017;-86
2021/12/15 11:40:32;;;;;;;14.45;9.27;;;3.80;99.90;;;;;;5064327;28;20040;-87
2021/12/15 11:42:58;;;;;;;13.35;9.00;;;3.90;99.90;;;;;;5066036;28;20017;-86
2021/12/15 11:45:25;;;;;;;15.73;9.68;;;3.80;99.90;;;;;;5066260;28;20071;-86
2021/12/15 11:48:08;;;;;;;16.20;9.70;;;3.80;99.90;;;;;;5069419;28;20020;-86
2021/12/15 11:50:39;;;;;;;15.63;9.27;;;3.70;99.90;;;;;;5070433;28;20469;-86
2021/12/15 11:53:05;;;;;;;14.93;8.82;;;3.70;99.90;;;;;;5065515;28;20032;-86
2021/12/15 11:55:33;;;;;;;13.75;9.57;;;3.60;99.90;;;;;;5065870;28;20603;-86
2021/12/15 11:58:00;;;;;;;13.23;9.20;;;3.80;99.90;;;;;;5065875;28;20055;-86
2021/12/15 12:00:29;;;;;;;15.57;10.10;;;4.10;99.90;;;;;;5065691;28;20155;-86
2021/12/15 12:02:58;;;;;;;19.58;12.45;;;3.60;99.90;;;;;;5068894;28;20029;-87
2021/12/15 12:05:33;;;;;;;14.07;9.05;;;3.70;99.90;;;;;;5067558;28;20389;-86
2021/12/15 12:08:02;;;;;;;15.05;9.77;;;3.70;99.90;;;;;;5066059;28;20020;-87
2021/12/15 12:10:50;;;;;;;16.65;9.88;;;3.60;99.90;;;;;;5065828;28;20021;-86
2021/12/15 12:13:27;;;;;;;30.98;22.30;;;3.60;99.90;;;;;;5065781;28;20020;-86
2021/12/15 12:15:56;;;;;;;24.95;16.40;;;3.90;99.90;;;;;;5047504;28;20028;-86
2021/12/15 12:18:24;;;;;;;15.25;10.60;;;4.00;99.90;;;;;;5064606;28;20028;-87
2021/12/15 12:20:53;;;;;;;13.25;8.52;;;4.00;99.90;;;;;;5070183;28;20127;-86
2021/12/15 12:23:22;;;;;;;12.30;8.13;;;4.70;99.90;;;;;;5068475;28;20120;-86
2021/12/15 12:25:52;;;;;;;14.27;10.80;;;4.10;99.90;;;;;;5047795;28;20366;-86
2021/12/15 12:28:24;;;;;;;22.08;15.40;;;4.10;99.90;;;;;;5066421;28;20047;-86
2021/12/15 12:30:57;;;;;;;13.20;8.88;;;4.30;99.90;;;;;;5065498;28;20033;-86
2021/12/15 12:33:24;;;;;;;14.02;8.40;;;4.70;99.90;;;;;;5064904;28;20114;-86
2021/12/15 12:36:01;;;;;;;11.95;8.05;;;4.70;99.90;;;;;;5069590;28;20025;-86
2021/12/15 12:38:28;;;;;;;12.93;8.43;;;4.10;99.90;;;;;;5068510;28;20020;-86
2021/12/15 12:41:14;;;;;;;12.80;8.45;;;4.80;99.90;;;;;;5065083;28;20125;-86
2021/12/15 12:43:39;;;;;;;11.80;8.18;;;4.00;99.90;;;;;;5065420;28;20029;-86
2021/12/15 12:46:26;;;;;;;13.10;8.95;;;4.70;99.90;;;;;;5065741;28;20027;-86
2021/12/15 13:00:35;;;;;;;22.35;13.05;;;4.30;99.90;;;;;;5070019;28;20444;-87
2021/12/15 13:03:12;;;;;;;16.83;10.02;;;4.20;99.90;;;;;;5066115;28;20460;-86
2021/12/15 13:05:45;;;;;;;11.02;7.05;;;4.60;99.90;;;;;;5074634;28;20551;-86
2021/12/15 13:08:33;;;;;;;37.10;17.95;;;4.00;99.90;;;;;;5069826;28;20024;-86
2021/12/15 13:11:10;;;;;;;11.52;7.68;;;3.90;99.90;;;;;;5068501;28;20070;-86
2021/12/15 13:13:54;;;;;;;11.98;7.57;;;3.90;99.90;;;;;;5050496;28;20020;-86
2021/12/15 13:16:49;;;;;;;13.35;8.85;;;3.80;99.90;;;;;;5068365;28;20029;-86
2021/12/15 13:19:40;;;;;;;11.45;8.80;;;3.90;99.90;;;;;;5067809;28;20020;-86
2021/12/15 13:30:49;;;;;;;9.63;6.82;;;4.20;99.90;;;;;;5068089;28;20046;-86
2021/12/15 13:33:28;;;;;;;10.95;6.95;;;3.80;99.90;;;;;;5067999;28;20022;-86
2021/12/15 13:36:05;;;;;;;11.77;7.15;;;3.80;99.90;;;;;;5071865;28;20020;-87
2021/12/15 13:38:38;;;;;;;10.13;6.38;;;3.80;99.90;;;;;;5072037;28;20358;-86
2021/12/15 13:41:24;;;;;;;10.35;6.90;;;3.90;99.90;;;;;;5067643;28;20040;-86
2021/12/15 13:43:53;;;;;;;11.55;7.57;;;4.00;99.90;;;;;;5067674;28;20036;-86
2021/12/15 13:46:27;;;;;;;10.15;7.15;;;4.00;99.90;;;;;;5067425;28;20029;-85
2021/12/15 13:49:04;;;;;;;10.02;6.70;;;4.00;99.90;;;;;;5067580;28;20025;-86
2021/12/15 13:52:04;;;;;;;19.52;12.18;;;4.00;99.90;;;;;;5068211;28;20025;-86
2021/12/15 13:54:32;;;;;;;18.77;13.07;;;4.00;99.90;;;;;;5041126;28;20040;-86
2021/12/15 13:57:14;;;;;;;11.60;7.30;;;4.10;99.90;;;;;;5069800;28;20028;-86
2021/12/15 13:59:42;;;;;;;10.40;7.40;;;3.90;99.90;;;;;;5065121;28;20059;-86
2021/12/15 14:02:27;;;;;;;10.15;6.75;;;4.00;99.90;;;;;;5067347;28;20122;-85
2021/12/15 14:04:54;;;;;;;9.35;6.70;;;3.80;99.90;;;;;;5049355;28;20032;-86
2021/12/15 14:07:50;;;;;;;14.38;10.35;;;4.50;99.90;;;;;;5067215;28;20063;-86
2021/12/15 14:10:35;;;;;;;11.70;6.97;;;3.70;99.90;;;;;;5066723;28;20036;-85
2021/12/15 14:13:04;;;;;;;10.00;6.93;;;3.50;99.90;;;;;;5066595;28;20082;-86
2021/12/15 14:15:36;;;;;;;9.30;6.70;;;3.70;99.90;;;;;;5066023;28;20044;-86
2021/12/15 14:18:29;;;;;;;9.00;6.85;;;3.70;99.90;;;;;;5068714;28;20021;-87
2021/12/15 14:21:06;;;;;;;10.88;6.85;;;3.70;99.90;;;;;;5056131;28;20044;-86
2021/12/15 14:23:40;;;;;;;11.10;7.53;;;3.60;99.90;;;;;;5053431;28;20047;-86